createdAt,value
2023-01-05T00:00:25.315Z,49.00
2023-01-05T00:05:29.463Z,50.00
2023-01-05T00:10:52.332Z,46.50
2023-01-05T00:16:16.343Z,45.25
2023-01-05T00:21:40.006Z,46.25
2023-01-05T00:26:45.008Z,88.33
2023-01-05T00:31:49.083Z,50.00
2023-01-05T00:36:53.240Z,53.67
2023-01-05T00:41:58.132Z,56.00
2023-01-05T00:47:02.761Z,59.00
2023-01-05T00:52:08.091Z,62.75
2023-01-05T00:57:16.682Z,60.67
2023-01-05T01:02:21.581Z,51.50
2023-01-05T01:07:27.428Z,57.25
2023-01-05T01:12:32.190Z,71.33
2023-01-05T01:17:37.184Z,67.00
2023-01-05T01:22:41.807Z,58.00
2023-01-05T01:27:45.894Z,56.00
2023-01-05T01:32:50.535Z,50.00
2023-01-05T01:37:55.098Z,45.00
2023-01-05T01:43:00.726Z,49.00
2023-01-05T01:48:05.929Z,49.25
2023-01-05T01:53:16.243Z,50.00
2023-01-05T01:58:19.955Z,50.00
2023-01-05T02:03:23.569Z,48.00
2023-01-05T02:08:33.614Z,48.00
2023-01-05T02:13:41.585Z,49.67
2023-01-05T02:18:46.321Z,50.00
2023-01-05T02:24:02.836Z,48.33
2023-01-05T02:29:06.618Z,50.00
2023-01-05T02:34:35.411Z,45.67
2023-01-05T02:39:48.507Z,47.75
2023-01-05T02:50:20.733Z,47.00
2023-01-05T02:55:37.894Z,50.00
2023-01-05T03:01:07.434Z,50.00
2023-01-05T03:06:25.286Z,47.67
2023-01-05T03:12:03.681Z,45.00
2023-01-05T03:17:08.966Z,44.50
2023-01-05T03:22:43.820Z,41.67
2023-01-05T03:28:09.568Z,45.00
2023-01-05T03:33:58.395Z,50.00
2023-01-05T03:39:07.542Z,49.75
2023-01-05T03:44:13.283Z,42.67
2023-01-05T03:49:18.988Z,45.00
2023-01-05T03:54:26.397Z,47.50
2023-01-05T03:59:31.720Z,48.00
2023-01-05T04:04:38.045Z,48.00
2023-01-05T04:09:46.646Z,48.75
2023-01-05T04:14:51.981Z,48.00
2023-01-05T04:19:58.320Z,47.00
2023-01-05T04:25:04.779Z,49.00
2023-01-05T04:30:10.144Z,48.00
2023-01-05T04:35:16.147Z,48.00
2023-01-05T04:40:22.799Z,48.00
2023-01-05T04:45:31.247Z,50.00
2023-01-05T04:51:05.503Z,50.00
2023-01-05T04:56:14.082Z,57.25
2023-01-05T05:01:22.065Z,44.67
2023-01-05T05:06:30.724Z,50.00
2023-01-05T05:11:38.195Z,52.25
2023-01-05T05:16:42.922Z,50.00
2023-01-05T05:21:48.433Z,56.50
2023-01-05T05:26:53.838Z,50.00
2023-01-05T05:31:58.891Z,50.25
2023-01-05T05:37:04.675Z,50.00
2023-01-05T05:42:09.391Z,61.25
2023-01-05T05:47:13.965Z,50.00
2023-01-05T05:52:19.135Z,56.25
2023-01-05T05:57:25.094Z,50.00
2023-01-05T06:02:30.608Z,49.25
2023-01-05T06:07:36.166Z,50.00
2023-01-05T06:12:40.731Z,50.25
2023-01-05T06:17:49.877Z,50.25
2023-01-05T06:22:56.057Z,49.00
2023-01-05T06:28:00.952Z,52.25
2023-01-05T06:33:09.378Z,59.67
2023-01-05T06:38:17.398Z,50.50
2023-01-05T06:43:22.982Z,50.00
2023-01-05T06:48:28.243Z,49.50
2023-01-05T06:53:33.579Z,50.00
2023-01-05T06:58:38.857Z,53.25
2023-01-05T07:03:43.891Z,50.50
2023-01-05T07:08:49.121Z,50.00
2023-01-05T07:13:54.460Z,50.00
2023-01-05T07:18:59.701Z,54.50
2023-01-05T07:24:06.029Z,53.67
2023-01-05T07:29:11.406Z,50.00
2023-01-05T07:34:16.688Z,54.75
2023-01-05T07:39:22.105Z,52.75
2023-01-05T07:44:27.594Z,60.00
2023-01-05T07:49:36.995Z,50.00
2023-01-05T07:54:41.301Z,55.50
2023-01-05T07:59:46.210Z,50.00
2023-01-05T08:04:52.659Z,50.67
2023-01-05T08:10:16.037Z,54.00
2023-01-05T08:15:20.981Z,52.67
2023-01-05T08:20:27.715Z,51.75
2023-01-05T08:25:34.348Z,52.33
2023-01-05T08:30:39.933Z,59.00
2023-01-05T08:35:46.950Z,62.00
2023-01-05T08:40:52.919Z,49.75
2023-01-05T08:45:57.984Z,56.50
2023-01-05T08:51:08.717Z,72.25
2023-01-05T08:56:14.298Z,63.00
2023-01-05T09:01:22.402Z,97.00
2023-01-05T09:06:26.825Z,196.50
2023-01-05T09:22:02.600Z,69.25
2023-01-05T09:27:09.866Z,194.25
2023-01-05T09:32:14.729Z,159.75
2023-01-05T09:37:19.391Z,167.00
2023-01-05T09:42:28.800Z,190.67
2023-01-05T09:47:43.378Z,104.50
2023-01-05T09:52:47.822Z,114.00
2023-01-05T09:58:08.893Z,94.50
2023-01-05T10:04:01.996Z,84.25
2023-01-05T10:08:53.261Z,88.67
2023-01-05T10:14:09.265Z,84.00
2023-01-05T10:19:20.026Z,100.00
2023-01-05T10:24:44.094Z,112.75
2023-01-05T10:29:50.705Z,98.75
2023-01-05T10:40:05.569Z,109.00
2023-01-05T10:45:17.256Z,97.75
2023-01-05T10:50:37.513Z,96.33
2023-01-05T10:56:06.935Z,92.00
2023-01-05T11:01:30.908Z,86.00
2023-01-05T11:06:34.908Z,93.00
2023-01-05T11:11:39.955Z,69.25
2023-01-05T11:16:53.139Z,64.75
2023-01-05T11:22:01.876Z,66.00
2023-01-05T11:27:26.685Z,71.67
2023-01-05T11:32:31.588Z,74.67
2023-01-05T11:37:35.534Z,68.67
2023-01-05T11:42:44.862Z,57.00
2023-01-05T11:47:50.878Z,53.67
2023-01-05T11:52:58.480Z,50.00
2023-01-05T11:58:24.463Z,50.00
2023-01-05T12:04:07.194Z,51.00
2023-01-05T12:09:36.449Z,52.25
2023-01-05T12:15:08.435Z,64.75
2023-01-05T12:20:22.317Z,59.25
2023-01-05T12:25:37.244Z,54.75
2023-01-05T12:33:19.382Z,73.33
2023-01-05T12:36:45.103Z,70.00
2023-01-05T12:41:52.766Z,69.00
2023-01-05T12:47:25.077Z,68.75
2023-01-05T12:52:43.940Z,59.67
2023-01-05T12:57:53.942Z,57.00
2023-01-05T13:03:15.375Z,62.00
2023-01-05T13:08:27.539Z,59.00
2023-01-05T13:13:31.701Z,55.25
2023-01-05T13:18:43.342Z,58.00
2023-01-05T13:23:58.520Z,53.50
2023-01-05T13:29:06.117Z,58.50
2023-01-05T13:34:16.105Z,54.67
2023-01-05T13:39:27.693Z,64.67
2023-01-05T13:44:50.940Z,59.25
2023-01-05T13:50:18.227Z,57.00
2023-01-05T13:55:26.176Z,62.00
2023-01-05T14:00:44.479Z,58.00
2023-01-05T14:06:02.750Z,56.67
2023-01-05T14:11:22.042Z,56.00
2023-01-05T14:16:46.317Z,55.75
2023-01-05T14:27:23.199Z,56.33
2023-01-05T14:32:28.219Z,54.25
2023-01-05T14:37:53.900Z,66.00
2023-01-05T14:43:01.218Z,63.25
2023-01-05T14:48:26.458Z,58.75
2023-01-05T14:53:52.989Z,57.25
2023-01-05T14:59:01.469Z,58.00
2023-01-05T15:04:09.827Z,61.75
2023-01-05T15:09:24.357Z,55.00
2023-01-05T15:14:53.988Z,64.50
2023-01-05T15:20:15.242Z,60.50
2023-01-05T15:25:24.790Z,62.00
2023-01-05T15:30:48.389Z,59.00
2023-01-05T15:35:58.406Z,54.67
2023-01-05T15:41:14.639Z,57.67
2023-01-05T15:46:24.611Z,54.67
2023-01-05T15:51:32.396Z,54.67
2023-01-05T15:56:37.181Z,52.00
2023-01-05T16:01:42.232Z,55.75
2023-01-05T16:06:50.147Z,63.00
2023-01-05T16:11:58.722Z,62.00
2023-01-05T16:17:13.482Z,63.50
2023-01-05T16:22:20.181Z,61.33
2023-01-05T16:27:25.306Z,59.67
2023-01-05T16:32:36.027Z,60.33
2023-01-05T16:37:42.587Z,65.00
2023-01-05T16:42:49.440Z,68.67
2023-01-05T16:47:55.199Z,63.25
2023-01-05T16:58:31.317Z,58.25
2023-01-05T17:03:36.390Z,58.00
2023-01-05T17:08:42.351Z,63.50
2023-01-05T17:13:51.574Z,62.33
2023-01-05T17:18:57.560Z,62.75
2023-01-05T17:24:05.090Z,64.25
2023-01-05T17:29:18.815Z,65.00
2023-01-05T17:34:24.819Z,73.00
2023-01-05T17:44:39.840Z,64.00
2023-01-05T17:49:45.104Z,61.00
2023-01-05T17:54:50.568Z,68.00
2023-01-05T17:59:55.688Z,64.67
2023-01-05T18:04:59.784Z,77.33
2023-01-05T18:10:04.240Z,59.33
2023-01-05T18:15:09.673Z,57.50
2023-01-05T18:20:17.706Z,54.00
2023-01-05T18:25:25.138Z,54.33
2023-01-05T18:30:30.416Z,60.67
2023-01-05T18:35:37.257Z,63.75
2023-01-05T18:40:47.919Z,59.50
2023-01-05T18:45:58.571Z,60.75
2023-01-05T18:51:02.060Z,66.50
2023-01-05T18:56:05.937Z,68.00
2023-01-05T19:01:15.773Z,68.00
2023-01-05T19:06:21.326Z,67.00
2023-01-05T19:11:26.657Z,72.00
2023-01-05T19:16:31.692Z,62.33
2023-01-05T19:21:36.795Z,50.00
2023-01-05T19:26:41.364Z,58.00
2023-01-05T19:31:46.388Z,55.75
2023-01-05T19:36:49.964Z,63.50
2023-01-05T19:41:54.093Z,65.00
2023-01-05T19:46:58.678Z,65.25
2023-01-05T19:52:03.278Z,60.00
2023-01-05T19:57:07.838Z,63.00
2023-01-05T20:02:11.312Z,63.00
2023-01-05T20:07:16.039Z,60.00
2023-01-05T20:12:20.946Z,56.33
2023-01-05T20:17:25.667Z,60.33
2023-01-05T20:22:30.354Z,68.00
2023-01-05T20:27:35.724Z,67.00
2023-01-05T20:37:44.688Z,63.00
2023-01-05T20:42:48.741Z,67.50
2023-01-05T20:47:53.389Z,66.00
2023-01-05T20:52:59.136Z,71.67
2023-01-05T20:58:03.690Z,72.67
2023-01-05T21:03:08.865Z,64.25
2023-01-05T21:08:13.136Z,69.50
2023-01-05T21:13:30.557Z,56.75
2023-01-05T21:18:36.984Z,68.00
2023-01-05T21:23:42.383Z,68.00
2023-01-05T21:28:47.910Z,72.00
2023-01-05T21:33:53.253Z,61.50
2023-01-05T21:39:03.838Z,62.00
2023-01-05T21:44:11.599Z,66.00
2023-01-05T21:49:16.380Z,68.67
2023-01-05T21:54:39.565Z,56.75
2023-01-05T21:59:44.949Z,61.00
2023-01-05T22:04:49.726Z,51.00
2023-01-05T22:09:54.374Z,50.00
2023-01-05T22:14:59.519Z,68.25
2023-01-05T22:20:05.152Z,79.67
2023-01-05T22:25:11.140Z,80.25
2023-01-05T22:30:14.717Z,83.00
2023-01-05T22:35:20.074Z,68.00
2023-01-05T22:45:30.607Z,63.00
2023-01-05T22:50:35.348Z,60.75
2023-01-05T22:55:39.379Z,63.00
2023-01-05T23:00:43.486Z,58.67
2023-01-05T23:05:48.178Z,55.00
2023-01-05T23:10:52.700Z,66.75
2023-01-05T23:15:57.455Z,65.00
2023-01-05T23:21:07.580Z,68.00
2023-01-05T23:26:15.525Z,66.67
2023-01-05T23:31:20.393Z,57.33
2023-01-05T23:36:26.112Z,65.50
2023-01-05T23:41:30.783Z,60.25
2023-01-05T23:46:35.189Z,64.67
2023-01-05T23:51:38.685Z,66.25
2023-01-05T23:56:43.218Z,63.00
